sensor_id;sensor_type;location;lat;lon;timestamp;P1;durP1;ratioP1;P2;durP2;ratioP2
30824;SDS011;17550;45.486;12.222;2023-01-08T00:03:31;123.32;;;60.75;;
30824;SDS011;17550;45.486;12.222;2023-01-08T00:06:04;116.88;;;59.50;;
30824;SDS011;17550;45.486;12.222;2023-01-08T00:08:32;119.97;;;60.03;;
30824;SDS011;17550;45.486;12.222;2023-01-08T00:10:58;126.35;;;62.40;;
30824;SDS011;17550;45.486;12.222;2023-01-08T00:13:24;119.45;;;59.72;;
30824;SDS011;17550;45.486;12.222;2023-01-08T00:15:51;110.65;;;57.25;;
30824;SDS011;17550;45.486;12.222;2023-01-08T00:18:16;116.68;;;58.08;;
30824;SDS011;17550;45.486;12.222;2023-01-08T00:20:43;118.90;;;57.60;;
30824;SDS011;17550;45.486;12.222;2023-01-08T00:23:15;124.72;;;59.70;;
30824;SDS011;17550;45.486;12.222;2023-01-08T00:25:43;122.78;;;61.78;;
30824;SDS011;17550;45.486;12.222;2023-01-08T00:28:09;119.40;;;60.25;;
30824;SDS011;17550;45.486;12.222;2023-01-08T00:30:35;121.57;;;60.45;;
30824;SDS011;17550;45.486;12.222;2023-01-08T00:33:01;120.95;;;61.45;;
30824;SDS011;17550;45.486;12.222;2023-01-08T00:35:26;117.07;;;59.80;;
30824;SDS011;17550;45.486;12.222;2023-01-08T00:37:52;118.82;;;61.10;;
30824;SDS011;17550;45.486;12.222;2023-01-08T00:40:18;118.32;;;58.70;;
30824;SDS011;17550;45.486;12.222;2023-01-08T00:42:43;114.45;;;59.50;;
30824;SDS011;17550;45.486;12.222;2023-01-08T00:45:09;119.22;;;60.25;;
30824;SDS011;17550;45.486;12.222;2023-01-08T00:47:35;114.15;;;59.25;;
30824;SDS011;17550;45.486;12.222;2023-01-08T00:50:01;114.32;;;58.75;;
30824;SDS011;17550;45.486;12.222;2023-01-08T00:52:26;114.10;;;57.55;;
30824;SDS011;17550;45.486;12.222;2023-01-08T00:54:52;110.57;;;58.55;;
30824;SDS011;17550;45.486;12.222;2023-01-08T00:57:18;115.47;;;59.88;;
30824;SDS011;17550;45.486;12.222;2023-01-08T00:59:43;103.85;;;54.25;;
30824;SDS011;17550;45.486;12.222;2023-01-08T01:02:09;109.38;;;55.95;;
30824;SDS011;17550;45.486;12.222;2023-01-08T01:04:35;112.45;;;56.88;;
30824;SDS011;17550;45.486;12.222;2023-01-08T01:07:01;108.93;;;57.38;;
30824;SDS011;17550;45.486;12.222;2023-01-08T01:09:27;112.22;;;59.08;;
30824;SDS011;17550;45.486;12.222;2023-01-08T01:11:53;115.50;;;60.35;;
30824;SDS011;17550;45.486;12.222;2023-01-08T01:14:19;117.53;;;59.33;;
30824;SDS011;17550;45.486;12.222;2023-01-08T01:16:45;118.43;;;61.08;;
30824;SDS011;17550;45.486;12.222;2023-01-08T01:19:12;118.80;;;61.50;;
30824;SDS011;17550;45.486;12.222;2023-01-08T01:21:41;127.93;;;63.17;;
30824;SDS011;17550;45.486;12.222;2023-01-08T01:24:08;121.85;;;62.75;;
30824;SDS011;17550;45.486;12.222;2023-01-08T01:26:36;119.20;;;62.15;;
30824;SDS011;17550;45.486;12.222;2023-01-08T01:29:02;127.85;;;61.80;;
30824;SDS011;17550;45.486;12.222;2023-01-08T01:31:28;126.07;;;61.25;;
30824;SDS011;17550;45.486;12.222;2023-01-08T01:33:55;119.35;;;61.03;;
30824;SDS011;17550;45.486;12.222;2023-01-08T01:36:21;120.57;;;61.72;;
30824;SDS011;17550;45.486;12.222;2023-01-08T01:38:48;117.70;;;61.00;;
30824;SDS011;17550;45.486;12.222;2023-01-08T01:41:57;123.43;;;62.53;;
30824;SDS011;17550;45.486;12.222;2023-01-08T01:46:58;119.22;;;60.13;;
30824;SDS011;17550;45.486;12.222;2023-01-08T01:49:25;122.10;;;60.72;;
30824;SDS011;17550;45.486;12.222;2023-01-08T01:51:52;118.45;;;62.38;;
30824;SDS011;17550;45.486;12.222;2023-01-08T01:54:26;116.13;;;58.45;;
30824;SDS011;17550;45.486;12.222;2023-01-08T01:56:53;121.70;;;59.67;;
30824;SDS011;17550;45.486;12.222;2023-01-08T01:59:19;110.03;;;60.42;;
30824;SDS011;17550;45.486;12.222;2023-01-08T02:01:45;119.07;;;59.55;;
30824;SDS011;17550;45.486;12.222;2023-01-08T02:04:11;111.63;;;59.88;;
30824;SDS011;17550;45.486;12.222;2023-01-08T02:06:41;115.50;;;60.10;;
30824;SDS011;17550;45.486;12.222;2023-01-08T02:11:56;118.93;;;61.28;;
30824;SDS011;17550;45.486;12.222;2023-01-08T02:17:37;120.85;;;62.05;;
30824;SDS011;17550;45.486;12.222;2023-01-08T02:20:08;113.25;;;58.25;;
30824;SDS011;17550;45.486;12.222;2023-01-08T02:27:41;124.40;;;60.13;;
30824;SDS011;17550;45.486;12.222;2023-01-08T02:30:11;116.03;;;59.45;;
30824;SDS011;17550;45.486;12.222;2023-01-08T02:32:38;121.70;;;61.20;;
30824;SDS011;17550;45.486;12.222;2023-01-08T02:35:06;112.65;;;59.20;;
30824;SDS011;17550;45.486;12.222;2023-01-08T02:37:32;111.40;;;56.33;;
30824;SDS011;17550;45.486;12.222;2023-01-08T02:53:20;110.57;;;57.50;;
30824;SDS011;17550;45.486;12.222;2023-01-08T02:55:52;115.78;;;58.22;;
30824;SDS011;17550;45.486;12.222;2023-01-08T02:58:22;112.40;;;57.67;;
30824;SDS011;17550;45.486;12.222;2023-01-08T03:00:49;113.47;;;59.33;;
30824;SDS011;17550;45.486;12.222;2023-01-08T03:03:19;122.72;;;59.63;;
30824;SDS011;17550;45.486;12.222;2023-01-08T03:05:52;114.70;;;58.67;;
30824;SDS011;17550;45.486;12.222;2023-01-08T03:08:23;113.68;;;58.40;;
30824;SDS011;17550;45.486;12.222;2023-01-08T03:10:54;114.22;;;58.58;;
30824;SDS011;17550;45.486;12.222;2023-01-08T03:13:35;123.35;;;62.35;;
30824;SDS011;17550;45.486;12.222;2023-01-08T03:16:17;119.22;;;62.00;;
30824;SDS011;17550;45.486;12.222;2023-01-08T03:18:51;118.30;;;58.38;;
30824;SDS011;17550;45.486;12.222;2023-01-08T03:21:19;121.15;;;62.00;;
30824;SDS011;17550;45.486;12.222;2023-01-08T03:23:46;119.15;;;60.38;;
30824;SDS011;17550;45.486;12.222;2023-01-08T03:26:14;120.78;;;61.30;;
30824;SDS011;17550;45.486;12.222;2023-01-08T03:28:45;119.38;;;61.78;;
30824;SDS011;17550;45.486;12.222;2023-01-08T03:31:14;119.13;;;59.28;;
30824;SDS011;17550;45.486;12.222;2023-01-08T03:33:42;123.53;;;60.47;;
30824;SDS011;17550;45.486;12.222;2023-01-08T03:36:09;120.13;;;61.40;;
30824;SDS011;17550;45.486;12.222;2023-01-08T03:38:39;114.45;;;60.13;;
30824;SDS011;17550;45.486;12.222;2023-01-08T03:41:10;120.75;;;62.17;;
30824;SDS011;17550;45.486;12.222;2023-01-08T03:43:39;121.10;;;60.55;;
30824;SDS011;17550;45.486;12.222;2023-01-08T03:46:08;115.25;;;59.10;;
30824;SDS011;17550;45.486;12.222;2023-01-08T03:48:38;120.18;;;60.70;;
30824;SDS011;17550;45.486;12.222;2023-01-08T03:51:07;110.07;;;56.90;;
30824;SDS011;17550;45.486;12.222;2023-01-08T03:53:36;114.68;;;58.90;;
30824;SDS011;17550;45.486;12.222;2023-01-08T03:56:01;120.57;;;60.25;;
30824;SDS011;17550;45.486;12.222;2023-01-08T03:58:27;110.22;;;57.88;;
30824;SDS011;17550;45.486;12.222;2023-01-08T04:00:53;117.07;;;59.22;;
30824;SDS011;17550;45.486;12.222;2023-01-08T04:03:18;122.47;;;59.58;;
30824;SDS011;17550;45.486;12.222;2023-01-08T04:05:44;115.88;;;57.92;;
30824;SDS011;17550;45.486;12.222;2023-01-08T04:08:10;123.38;;;58.63;;
30824;SDS011;17550;45.486;12.222;2023-01-08T04:10:35;118.10;;;58.33;;
30824;SDS011;17550;45.486;12.222;2023-01-08T04:13:01;121.85;;;60.13;;
30824;SDS011;17550;45.486;12.222;2023-01-08T04:15:27;113.18;;;58.75;;
30824;SDS011;17550;45.486;12.222;2023-01-08T04:17:53;115.85;;;57.15;;
30824;SDS011;17550;45.486;12.222;2023-01-08T04:20:19;113.25;;;56.78;;
30824;SDS011;17550;45.486;12.222;2023-01-08T04:22:45;121.65;;;59.72;;
30824;SDS011;17550;45.486;12.222;2023-01-08T04:25:10;118.35;;;56.65;;
30824;SDS011;17550;45.486;12.222;2023-01-08T04:27:36;105.50;;;56.22;;
30824;SDS011;17550;45.486;12.222;2023-01-08T04:30:02;115.20;;;56.88;;
30824;SDS011;17550;45.486;12.222;2023-01-08T04:32:28;111.20;;;57.33;;
30824;SDS011;17550;45.486;12.222;2023-01-08T04:34:54;114.90;;;56.58;;
30824;SDS011;17550;45.486;12.222;2023-01-08T04:37:19;115.68;;;57.60;;
30824;SDS011;17550;45.486;12.222;2023-01-08T04:39:45;115.53;;;54.97;;
30824;SDS011;17550;45.486;12.222;2023-01-08T04:42:11;120.57;;;57.33;;
30824;SDS011;17550;45.486;12.222;2023-01-08T04:44:36;130.98;;;59.22;;
30824;SDS011;17550;45.486;12.222;2023-01-08T04:47:02;124.32;;;56.28;;
30824;SDS011;17550;45.486;12.222;2023-01-08T04:49:28;123.78;;;57.67;;
30824;SDS011;17550;45.486;12.222;2023-01-08T04:51:53;115.82;;;55.90;;
30824;SDS011;17550;45.486;12.222;2023-01-08T04:54:19;125.28;;;56.28;;
30824;SDS011;17550;45.486;12.222;2023-01-08T04:56:44;115.00;;;56.58;;
30824;SDS011;17550;45.486;12.222;2023-01-08T04:59:10;118.22;;;54.25;;
30824;SDS011;17550;45.486;12.222;2023-01-08T05:01:36;113.13;;;54.83;;
30824;SDS011;17550;45.486;12.222;2023-01-08T05:04:02;117.95;;;56.60;;
30824;SDS011;17550;45.486;12.222;2023-01-08T05:06:29;118.88;;;56.58;;
30824;SDS011;17550;45.486;12.222;2023-01-08T05:08:55;115.45;;;54.55;;
30824;SDS011;17550;45.486;12.222;2023-01-08T05:11:22;111.07;;;55.10;;
30824;SDS011;17550;45.486;12.222;2023-01-08T05:13:48;118.60;;;55.78;;
30824;SDS011;17550;45.486;12.222;2023-01-08T05:16:15;119.72;;;54.90;;
30824;SDS011;17550;45.486;12.222;2023-01-08T05:18:41;110.72;;;52.90;;
30824;SDS011;17550;45.486;12.222;2023-01-08T05:21:08;124.57;;;55.85;;
30824;SDS011;17550;45.486;12.222;2023-01-08T05:23:34;118.68;;;55.95;;
30824;SDS011;17550;45.486;12.222;2023-01-08T05:26:00;115.55;;;54.30;;
30824;SDS011;17550;45.486;12.222;2023-01-08T05:28:28;123.07;;;56.00;;
30824;SDS011;17550;45.486;12.222;2023-01-08T05:30:54;116.18;;;54.53;;
30824;SDS011;17550;45.486;12.222;2023-01-08T05:33:20;117.00;;;55.72;;
30824;SDS011;17550;45.486;12.222;2023-01-08T05:35:46;120.65;;;54.47;;
30824;SDS011;17550;45.486;12.222;2023-01-08T05:38:12;112.13;;;53.13;;
30824;SDS011;17550;45.486;12.222;2023-01-08T05:40:37;113.65;;;54.22;;
30824;SDS011;17550;45.486;12.222;2023-01-08T05:43:03;115.45;;;53.95;;
30824;SDS011;17550;45.486;12.222;2023-01-08T05:45:29;116.50;;;55.83;;
30824;SDS011;17550;45.486;12.222;2023-01-08T05:47:58;126.15;;;54.17;;
30824;SDS011;17550;45.486;12.222;2023-01-08T05:50:24;117.63;;;54.97;;
30824;SDS011;17550;45.486;12.222;2023-01-08T05:52:50;120.47;;;57.40;;
30824;SDS011;17550;45.486;12.222;2023-01-08T05:55:16;129.02;;;57.53;;
30824;SDS011;17550;45.486;12.222;2023-01-08T05:57:41;120.43;;;56.83;;
30824;SDS011;17550;45.486;12.222;2023-01-08T06:00:08;129.27;;;57.35;;
30824;SDS011;17550;45.486;12.222;2023-01-08T06:02:35;120.07;;;55.08;;
30824;SDS011;17550;45.486;12.222;2023-01-08T06:05:01;118.10;;;55.38;;
30824;SDS011;17550;45.486;12.222;2023-01-08T06:07:27;115.32;;;54.00;;
30824;SDS011;17550;45.486;12.222;2023-01-08T06:09:53;116.28;;;54.47;;
30824;SDS011;17550;45.486;12.222;2023-01-08T06:12:19;107.82;;;53.42;;
30824;SDS011;17550;45.486;12.222;2023-01-08T06:14:44;115.22;;;53.75;;
30824;SDS011;17550;45.486;12.222;2023-01-08T06:17:10;116.65;;;54.30;;
30824;SDS011;17550;45.486;12.222;2023-01-08T06:19:36;119.97;;;55.67;;
30824;SDS011;17550;45.486;12.222;2023-01-08T06:22:03;115.05;;;54.70;;
30824;SDS011;17550;45.486;12.222;2023-01-08T06:24:29;114.95;;;54.85;;
30824;SDS011;17550;45.486;12.222;2023-01-08T06:26:55;118.65;;;55.97;;
30824;SDS011;17550;45.486;12.222;2023-01-08T06:29:23;121.68;;;56.67;;
30824;SDS011;17550;45.486;12.222;2023-01-08T06:31:48;128.48;;;57.50;;
30824;SDS011;17550;45.486;12.222;2023-01-08T06:34:14;119.53;;;53.75;;
30824;SDS011;17550;45.486;12.222;2023-01-08T06:36:40;115.35;;;55.55;;
30824;SDS011;17550;45.486;12.222;2023-01-08T06:39:06;110.20;;;52.45;;
30824;SDS011;17550;45.486;12.222;2023-01-08T06:41:32;107.70;;;53.15;;
30824;SDS011;17550;45.486;12.222;2023-01-08T06:43:58;109.18;;;53.97;;
30824;SDS011;17550;45.486;12.222;2023-01-08T06:46:24;97.20;;;49.22;;
30824;SDS011;17550;45.486;12.222;2023-01-08T06:48:49;95.70;;;49.65;;
30824;SDS011;17550;45.486;12.222;2023-01-08T06:51:15;102.13;;;50.40;;
30824;SDS011;17550;45.486;12.222;2023-01-08T06:53:41;111.68;;;50.92;;
30824;SDS011;17550;45.486;12.222;2023-01-08T06:56:07;99.90;;;49.97;;
30824;SDS011;17550;45.486;12.222;2023-01-08T06:58:35;101.53;;;50.58;;
30824;SDS011;17550;45.486;12.222;2023-01-08T07:01:01;109.05;;;55.05;;
30824;SDS011;17550;45.486;12.222;2023-01-08T07:03:27;107.93;;;51.90;;
30824;SDS011;17550;45.486;12.222;2023-01-08T07:05:53;102.15;;;53.63;;
30824;SDS011;17550;45.486;12.222;2023-01-08T07:08:19;107.72;;;53.60;;
30824;SDS011;17550;45.486;12.222;2023-01-08T07:10:45;114.20;;;57.17;;
30824;SDS011;17550;45.486;12.222;2023-01-08T07:13:11;113.68;;;55.83;;
30824;SDS011;17550;45.486;12.222;2023-01-08T07:15:37;117.75;;;59.83;;
30824;SDS011;17550;45.486;12.222;2023-01-08T07:18:03;122.47;;;59.58;;
30824;SDS011;17550;45.486;12.222;2023-01-08T07:20:30;119.00;;;60.53;;
30824;SDS011;17550;45.486;12.222;2023-01-08T07:23:00;119.13;;;58.92;;
30824;SDS011;17550;45.486;12.222;2023-01-08T07:25:27;117.00;;;59.00;;
30824;SDS011;17550;45.486;12.222;2023-01-08T07:27:52;111.05;;;57.13;;
30824;SDS011;17550;45.486;12.222;2023-01-08T07:30:18;122.30;;;60.15;;
30824;SDS011;17550;45.486;12.222;2023-01-08T07:32:44;115.20;;;58.47;;
30824;SDS011;17550;45.486;12.222;2023-01-08T07:35:09;113.22;;;58.60;;
30824;SDS011;17550;45.486;12.222;2023-01-08T07:37:38;107.85;;;57.53;;
30824;SDS011;17550;45.486;12.222;2023-01-08T07:40:04;122.03;;;59.88;;
30824;SDS011;17550;45.486;12.222;2023-01-08T07:42:31;120.95;;;61.70;;
30824;SDS011;17550;45.486;12.222;2023-01-08T07:44:57;120.05;;;57.13;;
30824;SDS011;17550;45.486;12.222;2023-01-08T07:47:22;112.10;;;58.50;;
30824;SDS011;17550;45.486;12.222;2023-01-08T07:49:48;136.15;;;64.95;;
30824;SDS011;17550;45.486;12.222;2023-01-08T07:52:13;136.52;;;69.05;;
30824;SDS011;17550;45.486;12.222;2023-01-08T07:54:39;152.93;;;76.85;;
30824;SDS011;17550;45.486;12.222;2023-01-08T07:57:05;136.60;;;67.90;;
30824;SDS011;17550;45.486;12.222;2023-01-08T07:59:31;135.70;;;69.32;;
30824;SDS011;17550;45.486;12.222;2023-01-08T08:01:57;150.63;;;72.82;;
30824;SDS011;17550;45.486;12.222;2023-01-08T08:04:23;131.20;;;67.50;;
30824;SDS011;17550;45.486;12.222;2023-01-08T08:06:50;136.32;;;70.50;;
30824;SDS011;17550;45.486;12.222;2023-01-08T08:09:15;128.70;;;67.05;;
30824;SDS011;17550;45.486;12.222;2023-01-08T08:11:41;127.65;;;69.10;;
30824;SDS011;17550;45.486;12.222;2023-01-08T08:14:07;127.45;;;67.05;;
30824;SDS011;17550;45.486;12.222;2023-01-08T08:16:33;129.82;;;68.60;;
30824;SDS011;17550;45.486;12.222;2023-01-08T08:18:58;140.07;;;71.25;;
30824;SDS011;17550;45.486;12.222;2023-01-08T08:21:24;136.52;;;70.55;;
30824;SDS011;17550;45.486;12.222;2023-01-08T08:23:50;140.40;;;74.03;;
30824;SDS011;17550;45.486;12.222;2023-01-08T08:26:16;129.73;;;69.70;;
30824;SDS011;17550;45.486;12.222;2023-01-08T08:28:42;141.07;;;68.10;;
30824;SDS011;17550;45.486;12.222;2023-01-08T08:31:07;135.20;;;68.90;;
30824;SDS011;17550;45.486;12.222;2023-01-08T08:33:33;140.18;;;70.72;;
30824;SDS011;17550;45.486;12.222;2023-01-08T08:35:59;144.27;;;73.00;;
30824;SDS011;17550;45.486;12.222;2023-01-08T08:38:24;140.60;;;72.05;;
30824;SDS011;17550;45.486;12.222;2023-01-08T08:40:51;132.63;;;68.82;;
30824;SDS011;17550;45.486;12.222;2023-01-08T08:43:16;131.55;;;69.32;;
30824;SDS011;17550;45.486;12.222;2023-01-08T08:45:42;134.45;;;69.80;;
30824;SDS011;17550;45.486;12.222;2023-01-08T08:48:08;138.98;;;72.25;;
30824;SDS011;17550;45.486;12.222;2023-01-08T08:50:35;130.60;;;68.25;;
30824;SDS011;17550;45.486;12.222;2023-01-08T08:53:03;129.90;;;69.80;;
30824;SDS011;17550;45.486;12.222;2023-01-08T08:55:30;133.00;;;70.82;;
30824;SDS011;17550;45.486;12.222;2023-01-08T08:58:03;141.13;;;75.05;;
30824;SDS011;17550;45.486;12.222;2023-01-08T09:00:31;125.40;;;69.05;;
30824;SDS011;17550;45.486;12.222;2023-01-08T09:02:57;124.22;;;68.88;;
30824;SDS011;17550;45.486;12.222;2023-01-08T09:05:22;123.63;;;66.72;;
30824;SDS011;17550;45.486;12.222;2023-01-08T09:07:48;127.63;;;68.32;;
30824;SDS011;17550;45.486;12.222;2023-01-08T09:10:14;125.93;;;67.55;;
30824;SDS011;17550;45.486;12.222;2023-01-08T09:12:40;120.65;;;65.22;;
30824;SDS011;17550;45.486;12.222;2023-01-08T09:15:06;118.53;;;64.70;;
30824;SDS011;17550;45.486;12.222;2023-01-08T09:17:32;114.57;;;64.20;;
30824;SDS011;17550;45.486;12.222;2023-01-08T09:19:58;123.28;;;69.13;;
30824;SDS011;17550;45.486;12.222;2023-01-08T09:22:23;121.50;;;67.78;;
30824;SDS011;17550;45.486;12.222;2023-01-08T09:24:49;120.22;;;66.38;;
30824;SDS011;17550;45.486;12.222;2023-01-08T09:27:15;119.15;;;66.65;;
30824;SDS011;17550;45.486;12.222;2023-01-08T09:29:40;130.23;;;71.85;;
30824;SDS011;17550;45.486;12.222;2023-01-08T09:32:07;130.10;;;70.63;;
30824;SDS011;17550;45.486;12.222;2023-01-08T09:34:33;120.70;;;69.68;;
30824;SDS011;17550;45.486;12.222;2023-01-08T09:37:00;123.95;;;69.75;;
30824;SDS011;17550;45.486;12.222;2023-01-08T09:39:26;112.82;;;65.90;;
30824;SDS011;17550;45.486;12.222;2023-01-08T09:41:51;113.10;;;65.35;;
30824;SDS011;17550;45.486;12.222;2023-01-08T09:44:19;117.03;;;63.67;;
30824;SDS011;17550;45.486;12.222;2023-01-08T09:46:49;119.28;;;68.10;;
30824;SDS011;17550;45.486;12.222;2023-01-08T09:49:23;117.00;;;65.78;;
30824;SDS011;17550;45.486;12.222;2023-01-08T09:51:53;105.75;;;64.03;;
30824;SDS011;17550;45.486;12.222;2023-01-08T09:54:19;112.55;;;65.85;;
30824;SDS011;17550;45.486;12.222;2023-01-08T09:56:48;110.68;;;62.45;;
30824;SDS011;17550;45.486;12.222;2023-01-08T09:59:17;119.70;;;70.13;;
30824;SDS011;17550;45.486;12.222;2023-01-08T10:01:44;108.72;;;64.28;;
30824;SDS011;17550;45.486;12.222;2023-01-08T10:04:18;111.45;;;65.15;;
30824;SDS011;17550;45.486;12.222;2023-01-08T10:06:59;115.88;;;63.22;;
30824;SDS011;17550;45.486;12.222;2023-01-08T10:11:59;125.82;;;68.32;;
30824;SDS011;17550;45.486;12.222;2023-01-08T10:14:27;135.07;;;72.95;;
30824;SDS011;17550;45.486;12.222;2023-01-08T10:17:03;159.85;;;80.93;;
30824;SDS011;17550;45.486;12.222;2023-01-08T10:19:29;136.35;;;75.28;;
30824;SDS011;17550;45.486;12.222;2023-01-08T10:21:55;134.10;;;75.95;;
30824;SDS011;17550;45.486;12.222;2023-01-08T10:24:34;125.38;;;75.43;;
30824;SDS011;17550;45.486;12.222;2023-01-08T10:27:05;131.55;;;74.63;;
30824;SDS011;17550;45.486;12.222;2023-01-08T10:29:31;138.50;;;78.10;;
30824;SDS011;17550;45.486;12.222;2023-01-08T10:31:57;125.20;;;70.07;;
30824;SDS011;17550;45.486;12.222;2023-01-08T10:34:38;129.48;;;74.60;;
30824;SDS011;17550;45.486;12.222;2023-01-08T10:37:16;135.77;;;74.35;;
30824;SDS011;17550;45.486;12.222;2023-01-08T10:39:53;124.88;;;71.93;;
30824;SDS011;17550;45.486;12.222;2023-01-08T10:42:37;109.45;;;66.20;;
30824;SDS011;17550;45.486;12.222;2023-01-08T10:45:05;114.97;;;67.88;;
30824;SDS011;17550;45.486;12.222;2023-01-08T10:47:57;111.07;;;66.07;;
30824;SDS011;17550;45.486;12.222;2023-01-08T10:50:26;115.05;;;64.03;;
30824;SDS011;17550;45.486;12.222;2023-01-08T10:52:57;118.37;;;66.17;;
30824;SDS011;17550;45.486;12.222;2023-01-08T10:55:26;120.10;;;70.65;;
30824;SDS011;17550;45.486;12.222;2023-01-08T10:58:11;122.38;;;70.97;;
30824;SDS011;17550;45.486;12.222;2023-01-08T11:00:39;115.30;;;67.75;;
30824;SDS011;17550;45.486;12.222;2023-01-08T11:03:06;141.52;;;70.32;;
30824;SDS011;17550;45.486;12.222;2023-01-08T11:05:42;129.88;;;70.82;;
30824;SDS011;17550;45.486;12.222;2023-01-08T11:08:15;120.15;;;69.50;;
30824;SDS011;17550;45.486;12.222;2023-01-08T11:10:43;113.20;;;67.28;;
30824;SDS011;17550;45.486;12.222;2023-01-08T11:13:20;125.72;;;75.05;;
30824;SDS011;17550;45.486;12.222;2023-01-08T11:15:56;127.15;;;73.82;;
30824;SDS011;17550;45.486;12.222;2023-01-08T11:18:55;116.15;;;68.00;;
30824;SDS011;17550;45.486;12.222;2023-01-08T11:21:24;117.05;;;65.95;;
30824;SDS011;17550;45.486;12.222;2023-01-08T11:26:49;132.90;;;74.07;;
30824;SDS011;17550;45.486;12.222;2023-01-08T11:29:44;127.35;;;73.72;;
30824;SDS011;17550;45.486;12.222;2023-01-08T11:37:48;134.02;;;74.93;;
30824;SDS011;17550;45.486;12.222;2023-01-08T11:40:16;141.27;;;80.13;;
30824;SDS011;17550;45.486;12.222;2023-01-08T11:56:33;139.57;;;78.40;;
30824;SDS011;17550;45.486;12.222;2023-01-08T11:59:17;144.73;;;81.25;;
30824;SDS011;17550;45.486;12.222;2023-01-08T12:09:58;161.02;;;87.22;;
30824;SDS011;17550;45.486;12.222;2023-01-08T12:15:31;145.38;;;81.97;;
30824;SDS011;17550;45.486;12.222;2023-01-08T12:33:59;167.13;;;88.82;;
30824;SDS011;17550;45.486;12.222;2023-01-08T12:36:48;169.48;;;93.47;;
30824;SDS011;17550;45.486;12.222;2023-01-08T12:39:21;160.27;;;87.10;;
30824;SDS011;17550;45.486;12.222;2023-01-08T12:41:53;166.60;;;87.72;;
30824;SDS011;17550;45.486;12.222;2023-01-08T12:44:29;155.90;;;84.05;;
30824;SDS011;17550;45.486;12.222;2023-01-08T12:46:56;167.55;;;88.80;;
30824;SDS011;17550;45.486;12.222;2023-01-08T12:49:28;169.52;;;88.55;;
30824;SDS011;17550;45.486;12.222;2023-01-08T12:52:14;155.68;;;86.05;;
30824;SDS011;17550;45.486;12.222;2023-01-08T12:54:57;178.60;;;96.40;;
30824;SDS011;17550;45.486;12.222;2023-01-08T13:02:52;182.35;;;97.20;;
30824;SDS011;17550;45.486;12.222;2023-01-08T13:07:59;169.35;;;90.60;;
30824;SDS011;17550;45.486;12.222;2023-01-08T13:12:58;196.40;;;97.72;;
30824;SDS011;17550;45.486;12.222;2023-01-08T13:15:26;186.00;;;97.40;;
30824;SDS011;17550;45.486;12.222;2023-01-08T13:17:53;181.13;;;95.28;;
30824;SDS011;17550;45.486;12.222;2023-01-08T13:20:23;170.45;;;89.80;;
30824;SDS011;17550;45.486;12.222;2023-01-08T13:23:01;185.68;;;96.43;;
30824;SDS011;17550;45.486;12.222;2023-01-08T13:27:55;199.77;;;98.82;;
30824;SDS011;17550;45.486;12.222;2023-01-08T13:38:37;189.93;;;97.32;;
30824;SDS011;17550;45.486;12.222;2023-01-08T13:41:03;186.65;;;97.50;;
30824;SDS011;17550;45.486;12.222;2023-01-08T13:43:33;188.00;;;98.63;;
30824;SDS011;17550;45.486;12.222;2023-01-08T13:46:17;192.35;;;96.65;;
30824;SDS011;17550;45.486;12.222;2023-01-08T13:51:37;199.10;;;98.03;;
30824;SDS011;17550;45.486;12.222;2023-01-08T13:56:41;176.55;;;93.53;;
30824;SDS011;17550;45.486;12.222;2023-01-08T13:59:18;181.80;;;92.27;;
30824;SDS011;17550;45.486;12.222;2023-01-08T14:01:51;184.82;;;95.32;;
30824;SDS011;17550;45.486;12.222;2023-01-08T14:04:22;201.23;;;99.13;;
30824;SDS011;17550;45.486;12.222;2023-01-08T14:06:48;196.68;;;98.38;;
30824;SDS011;17550;45.486;12.222;2023-01-08T14:09:23;190.23;;;93.97;;
30824;SDS011;17550;45.486;12.222;2023-01-08T14:11:52;179.13;;;93.40;;
30824;SDS011;17550;45.486;12.222;2023-01-08T14:14:22;207.48;;;102.15;;
30824;SDS011;17550;45.486;12.222;2023-01-08T14:16:49;190.57;;;93.85;;
30824;SDS011;17550;45.486;12.222;2023-01-08T14:19:20;188.80;;;96.18;;
30824;SDS011;17550;45.486;12.222;2023-01-08T14:21:51;212.00;;;103.53;;
30824;SDS011;17550;45.486;12.222;2023-01-08T14:24:19;208.10;;;102.53;;
30824;SDS011;17550;45.486;12.222;2023-01-08T14:26:51;212.70;;;103.18;;
30824;SDS011;17550;45.486;12.222;2023-01-08T14:29:25;216.23;;;103.82;;
30824;SDS011;17550;45.486;12.222;2023-01-08T14:31:57;232.60;;;110.05;;
30824;SDS011;17550;45.486;12.222;2023-01-08T14:34:28;227.05;;;107.50;;
30824;SDS011;17550;45.486;12.222;2023-01-08T14:36:55;229.23;;;109.63;;
30824;SDS011;17550;45.486;12.222;2023-01-08T14:39:43;214.60;;;104.20;;
30824;SDS011;17550;45.486;12.222;2023-01-08T14:42:18;210.82;;;101.18;;
30824;SDS011;17550;45.486;12.222;2023-01-08T14:45:19;217.52;;;100.53;;
30824;SDS011;17550;45.486;12.222;2023-01-08T14:47:59;225.13;;;102.07;;
30824;SDS011;17550;45.486;12.222;2023-01-08T14:50:33;215.27;;;105.80;;
30824;SDS011;17550;45.486;12.222;2023-01-08T14:53:07;266.75;;;123.70;;
30824;SDS011;17550;45.486;12.222;2023-01-08T14:55:43;238.80;;;114.78;;
30824;SDS011;17550;45.486;12.222;2023-01-08T14:58:15;213.30;;;99.60;;
30824;SDS011;17550;45.486;12.222;2023-01-08T15:00:50;196.95;;;95.00;;
30824;SDS011;17550;45.486;12.222;2023-01-08T15:05:58;225.73;;;103.50;;
30824;SDS011;17550;45.486;12.222;2023-01-08T15:08:24;215.57;;;102.13;;
30824;SDS011;17550;45.486;12.222;2023-01-08T15:11:00;209.45;;;97.78;;
30824;SDS011;17550;45.486;12.222;2023-01-08T15:13:32;210.23;;;99.53;;
30824;SDS011;17550;45.486;12.222;2023-01-08T15:16:09;208.80;;;95.18;;
30824;SDS011;17550;45.486;12.222;2023-01-08T15:18:43;212.15;;;100.35;;
30824;SDS011;17550;45.486;12.222;2023-01-08T15:21:17;219.25;;;102.70;;
30824;SDS011;17550;45.486;12.222;2023-01-08T15:23:46;211.90;;;103.50;;
30824;SDS011;17550;45.486;12.222;2023-01-08T15:26:14;200.05;;;95.78;;
30824;SDS011;17550;45.486;12.222;2023-01-08T15:28:52;197.60;;;97.15;;
30824;SDS011;17550;45.486;12.222;2023-01-08T15:33:55;209.40;;;98.70;;
30824;SDS011;17550;45.486;12.222;2023-01-08T15:36:21;203.75;;;98.80;;
30824;SDS011;17550;45.486;12.222;2023-01-08T15:38:48;223.75;;;103.47;;
30824;SDS011;17550;45.486;12.222;2023-01-08T15:41:15;228.75;;;104.78;;
30824;SDS011;17550;45.486;12.222;2023-01-08T15:44:01;213.18;;;101.10;;
30824;SDS011;17550;45.486;12.222;2023-01-08T15:46:27;212.80;;;98.72;;
30824;SDS011;17550;45.486;12.222;2023-01-08T15:48:53;205.73;;;96.57;;
30824;SDS011;17550;45.486;12.222;2023-01-08T15:51:19;208.18;;;99.60;;
30824;SDS011;17550;45.486;12.222;2023-01-08T15:53:44;207.40;;;99.05;;
30824;SDS011;17550;45.486;12.222;2023-01-08T15:56:10;213.40;;;104.05;;
30824;SDS011;17550;45.486;12.222;2023-01-08T15:58:36;213.93;;;101.85;;